createdAt,value
2019-03-05T00:02:00.566Z,98.50
2019-03-05T00:04:30.868Z,98.70
2019-03-05T00:07:01.174Z,98.60
2019-03-05T00:09:32.496Z,98.50
2019-03-05T00:12:02.806Z,98.50
2019-03-05T00:14:33.098Z,98.30
2019-03-05T00:17:03.577Z,98.50
2019-03-05T00:19:33.934Z,98.50
2019-03-05T00:22:04.893Z,98.50
2019-03-05T00:25:04.726Z,98.60
2019-03-05T00:27:41.754Z,98.70
2019-03-05T00:30:25.258Z,98.90
2019-03-05T00:33:06.746Z,98.90
2019-03-05T00:36:01.665Z,98.70
2019-03-05T00:38:44.083Z,98.50
2019-03-05T00:41:24.417Z,98.60
2019-03-05T00:44:18.318Z,98.50
2019-03-05T00:47:32.512Z,98.60
2019-03-05T00:50:28.388Z,98.50
2019-03-05T00:53:10.386Z,98.50
2019-03-05T00:56:11.790Z,98.40
2019-03-05T00:59:24.353Z,98.10
2019-03-05T01:02:42.110Z,98.30
2019-03-05T01:05:47.350Z,98.40
2019-03-05T01:08:19.568Z,98.30
2019-03-05T01:10:49.640Z,98.10
2019-03-05T01:13:20.113Z,97.80
2019-03-05T01:15:50.601Z,97.60
2019-03-05T01:18:20.932Z,97.20
2019-03-05T01:20:51.317Z,97.20
2019-03-05T01:23:21.927Z,97.00
2019-03-05T01:25:52.225Z,97.20
2019-03-05T01:28:22.532Z,97.20
2019-03-05T01:31:14.906Z,97.50
2019-03-05T01:34:03.290Z,97.60
2019-03-05T01:36:36.381Z,97.40
2019-03-05T01:39:20.725Z,97.20
2019-03-05T01:41:51.042Z,97.30
2019-03-05T01:44:21.329Z,97.00
2019-03-05T01:46:51.705Z,97.20
2019-03-05T01:49:21.999Z,97.20
2019-03-05T01:51:52.333Z,97.30
2019-03-05T01:54:22.706Z,97.60
2019-03-05T01:56:53.010Z,97.80
2019-03-05T01:59:23.318Z,98.00
2019-03-05T02:01:53.733Z,97.90
2019-03-05T02:04:24.048Z,97.80
2019-03-05T02:06:54.393Z,97.80
2019-03-05T02:09:24.712Z,98.00
2019-03-05T02:11:55.020Z,98.20
2019-03-05T02:14:25.334Z,98.30
2019-03-05T02:16:55.710Z,98.40
2019-03-05T02:19:43.410Z,98.00
2019-03-05T02:22:32.506Z,98.10
2019-03-05T02:25:34.450Z,98.20
2019-03-05T02:28:45.502Z,98.20
2019-03-05T02:32:02.297Z,97.60
2019-03-05T02:35:02.266Z,97.50
2019-03-05T02:38:05.661Z,97.10
2019-03-05T02:41:00.607Z,96.90
2019-03-05T02:44:09.129Z,97.10
2019-03-05T02:47:05.228Z,97.20
2019-03-05T02:49:59.060Z,97.50
2019-03-05T02:52:38.671Z,98.10
2019-03-05T02:55:32.308Z,98.30
2019-03-05T02:58:01.095Z,98.60
2019-03-05T03:00:59.751Z,98.50
2019-03-05T03:03:40.021Z,98.30
2019-03-05T03:06:17.470Z,98.60
2019-03-05T03:08:47.906Z,99.40
2019-03-05T03:11:18.216Z,99.70
2019-03-05T03:13:48.617Z,99.90
2019-03-05T03:16:18.999Z,99.90
2019-03-05T03:18:49.345Z,99.90
2019-03-05T03:21:19.688Z,99.90
2019-03-05T03:23:50.092Z,99.90
2019-03-05T03:26:20.422Z,99.90
2019-03-05T03:28:50.767Z,99.90
2019-03-05T03:31:21.172Z,99.80
2019-03-05T03:33:51.626Z,99.80
2019-03-05T03:36:22.119Z,99.90
2019-03-05T03:38:52.467Z,99.70
2019-03-05T03:41:22.843Z,99.50
2019-03-05T03:43:53.260Z,99.10
2019-03-05T03:46:23.669Z,99.10
2019-03-05T03:48:58.109Z,99.00
2019-03-05T03:51:28.550Z,99.00
2019-03-05T03:53:58.922Z,98.60
2019-03-05T03:56:29.243Z,98.70
2019-03-05T03:58:59.687Z,98.60
2019-03-05T04:01:31.380Z,98.20
2019-03-05T04:04:01.819Z,98.20
2019-03-05T04:06:32.135Z,98.10
2019-03-05T04:09:02.458Z,98.10
2019-03-05T04:11:32.799Z,97.90
2019-03-05T04:14:03.114Z,97.80
2019-03-05T04:16:33.412Z,97.90
2019-03-05T04:19:05.383Z,97.60
2019-03-05T04:21:35.738Z,97.80
2019-03-05T04:24:06.125Z,97.60
2019-03-05T04:26:36.471Z,97.70
2019-03-05T04:29:06.834Z,97.50
2019-03-05T04:31:37.174Z,97.40
2019-03-05T04:34:07.825Z,97.30
2019-03-05T04:36:38.327Z,97.30
2019-03-05T04:39:11.886Z,97.40
2019-03-05T04:41:42.298Z,97.40
2019-03-05T04:44:14.298Z,97.20
2019-03-05T04:46:48.834Z,97.30
2019-03-05T04:49:37.176Z,97.20
2019-03-05T04:52:11.578Z,97.30
2019-03-05T04:54:41.951Z,97.60
2019-03-05T04:57:12.323Z,97.70
2019-03-05T04:59:42.643Z,97.60
2019-03-05T05:02:13.034Z,97.40
2019-03-05T05:04:43.505Z,97.60
2019-03-05T05:07:13.770Z,97.70
2019-03-05T05:09:45.218Z,97.60
2019-03-05T05:12:15.596Z,97.70
2019-03-05T05:14:45.943Z,97.60
2019-03-05T05:17:16.350Z,97.80
2019-03-05T05:19:46.785Z,97.90
2019-03-05T05:22:17.111Z,97.60
2019-03-05T05:24:47.470Z,97.00
2019-03-05T05:27:17.975Z,97.50
2019-03-05T05:29:48.405Z,97.30
2019-03-05T05:32:18.806Z,97.30
2019-03-05T05:34:49.173Z,97.50
2019-03-05T05:37:20.694Z,97.40
2019-03-05T05:40:22.605Z,97.60
2019-03-05T05:42:52.990Z,97.80
2019-03-05T05:45:24.749Z,97.80
2019-03-05T05:47:55.081Z,98.10
2019-03-05T05:50:25.425Z,98.30
2019-03-05T05:52:55.831Z,98.50
2019-03-05T05:55:26.320Z,98.60
2019-03-05T05:57:56.690Z,98.50
2019-03-05T06:00:27.155Z,98.40
2019-03-05T06:02:57.469Z,98.40
2019-03-05T06:05:27.817Z,98.50
2019-03-05T06:07:58.301Z,98.80
2019-03-05T06:10:29.867Z,98.90
2019-03-05T06:13:00.239Z,99.20
2019-03-05T06:15:30.590Z,99.10
2019-03-05T06:18:00.943Z,99.40
2019-03-05T06:20:31.292Z,99.30
2019-03-05T06:23:01.691Z,99.50
2019-03-05T06:25:32.164Z,99.50
2019-03-05T06:28:02.474Z,99.50
2019-03-05T06:30:33.663Z,99.50
2019-03-05T06:33:04.067Z,99.50
2019-03-05T06:35:35.488Z,99.40
2019-03-05T06:38:06.034Z,99.40
2019-03-05T06:40:36.357Z,99.50
2019-03-05T06:43:06.262Z,99.50
2019-03-05T06:45:36.765Z,99.40
2019-03-05T06:48:06.727Z,99.50
2019-03-05T06:50:38.266Z,99.40
2019-03-05T06:53:08.909Z,99.40
2019-03-05T06:55:39.704Z,99.50
2019-03-05T06:58:11.861Z,99.50
2019-03-05T07:26:10.788Z,99.90
2019-03-05T07:28:41.718Z,99.90
2019-03-05T07:31:12.551Z,99.90
2019-03-05T07:33:43.243Z,99.90
2019-03-05T07:36:13.658Z,99.90
2019-03-05T07:38:44.035Z,99.90
2019-03-05T07:41:14.525Z,99.90
2019-03-05T07:43:45.017Z,99.90
2019-03-05T07:46:15.466Z,99.90
2019-03-05T07:48:45.934Z,99.90
2019-03-05T07:51:16.481Z,99.90
2019-03-05T07:53:46.952Z,99.90
2019-03-05T07:56:17.443Z,99.90
2019-03-05T07:58:47.908Z,99.90
2019-03-05T08:01:22.258Z,99.90
2019-03-05T08:03:50.325Z,99.90
2019-03-05T08:06:20.788Z,99.90
2019-03-05T08:09:27.359Z,99.90
2019-03-05T08:12:14.002Z,99.90
2019-03-05T08:15:14.105Z,99.90
2019-03-05T08:17:46.939Z,99.90
2019-03-05T08:20:16.553Z,99.90
2019-03-05T08:22:47.054Z,99.90
2019-03-05T08:25:17.436Z,99.90
2019-03-05T08:27:50.564Z,99.90
2019-03-05T08:30:19.847Z,99.90
2019-03-05T08:32:50.270Z,99.90
2019-03-05T08:35:20.615Z,99.90
2019-03-05T08:37:50.944Z,99.90
2019-03-05T08:40:21.407Z,99.90
2019-03-05T08:42:51.818Z,99.90
2019-03-05T08:45:29.449Z,99.90
2019-03-05T08:47:54.189Z,99.90
2019-03-05T08:50:24.553Z,99.90
2019-03-05T08:52:54.937Z,99.90
2019-03-05T08:55:25.425Z,99.90
2019-03-05T08:57:55.811Z,99.90
2019-03-05T09:00:26.275Z,99.90
2019-03-05T09:02:56.845Z,99.90
2019-03-05T09:05:27.277Z,99.90
2019-03-05T09:07:59.659Z,99.90
2019-03-05T09:10:30.390Z,99.90
2019-03-05T09:13:00.870Z,99.90
2019-03-05T09:15:31.334Z,99.90
2019-03-05T09:18:01.711Z,99.90
2019-03-05T09:20:32.055Z,99.90
2019-03-05T09:23:02.500Z,99.90
2019-03-05T09:25:32.903Z,99.90
2019-03-05T09:28:03.250Z,99.90
2019-03-05T09:30:33.614Z,99.90
2019-03-05T09:33:04.026Z,99.90
2019-03-05T09:35:34.502Z,99.90
2019-03-05T09:38:04.999Z,99.90
2019-03-05T09:40:35.706Z,99.90
2019-03-05T09:43:06.031Z,99.90
2019-03-05T09:45:36.383Z,99.90
2019-03-05T09:48:06.697Z,99.90
2019-03-05T09:50:37.240Z,99.90
2019-03-05T09:53:07.702Z,99.90
2019-03-05T09:55:39.315Z,99.90
2019-03-05T09:58:09.767Z,99.90
2019-03-05T10:00:40.613Z,99.90
2019-03-05T10:03:11.030Z,99.90
2019-03-05T10:05:42.129Z,99.90
2019-03-05T10:08:16.462Z,99.90
2019-03-05T10:10:46.781Z,99.90
2019-03-05T10:13:17.171Z,99.90
2019-03-05T10:15:47.496Z,99.90
2019-03-05T10:18:17.837Z,99.90
2019-03-05T10:20:49.281Z,99.90
2019-03-05T10:23:19.775Z,99.90
2019-03-05T10:25:50.476Z,99.90
2019-03-05T10:28:21.106Z,99.90
2019-03-05T10:30:51.599Z,99.90
2019-03-05T10:33:22.142Z,99.90
2019-03-05T10:35:52.736Z,99.90
2019-03-05T10:38:23.166Z,99.90
2019-03-05T10:40:54.181Z,99.90
2019-03-05T10:43:25.165Z,99.90
2019-03-05T10:45:55.597Z,99.90
2019-03-05T10:48:26.368Z,99.90
2019-03-05T10:50:57.713Z,99.90
2019-03-05T10:53:28.573Z,99.90
2019-03-05T10:55:58.896Z,99.90
2019-03-05T10:58:33.859Z,99.90
2019-03-05T11:01:01.743Z,99.90
2019-03-05T11:03:32.164Z,99.90
2019-03-05T11:06:04.469Z,99.90
2019-03-05T11:08:34.963Z,99.90
2019-03-05T11:11:13.617Z,99.90
2019-03-05T11:13:40.506Z,99.90
2019-03-05T11:16:10.849Z,99.90
2019-03-05T11:18:44.829Z,99.90
2019-03-05T11:21:15.337Z,99.70
2019-03-05T11:23:45.837Z,99.80
2019-03-05T11:26:16.263Z,99.30
2019-03-05T11:28:46.654Z,99.10
2019-03-05T11:31:17.466Z,99.70
2019-03-05T11:33:47.893Z,99.50
2019-03-05T11:36:18.722Z,98.70
2019-03-05T11:38:49.610Z,98.30
2019-03-05T11:41:21.032Z,98.40
2019-03-05T11:43:51.395Z,98.40
2019-03-05T11:46:21.766Z,98.50
2019-03-05T11:48:52.447Z,99.00
2019-03-05T11:51:22.839Z,99.20
2019-03-05T11:53:53.261Z,98.60
2019-03-05T11:56:25.880Z,98.10
2019-03-05T11:58:56.895Z,98.40
2019-03-05T12:01:48.097Z,98.10
2019-03-05T12:04:18.643Z,97.30
2019-03-05T12:06:49.077Z,97.60
2019-03-05T12:09:19.450Z,97.60
2019-03-05T12:11:49.954Z,97.30
2019-03-05T12:14:20.310Z,96.80
2019-03-05T12:16:50.694Z,96.90
2019-03-05T12:19:21.004Z,96.90
2019-03-05T12:21:51.366Z,96.80
2019-03-05T12:24:24.161Z,97.00
2019-03-05T12:26:53.903Z,96.90
2019-03-05T12:29:24.345Z,96.60
2019-03-05T12:31:56.658Z,96.30
2019-03-05T12:34:27.059Z,96.50
2019-03-05T12:36:57.534Z,96.20
2019-03-05T12:39:27.963Z,95.30
2019-03-05T12:41:58.463Z,95.70
2019-03-05T12:44:28.847Z,95.70
2019-03-05T12:46:59.330Z,96.30
2019-03-05T12:49:29.763Z,95.90
2019-03-05T12:52:00.278Z,96.40
2019-03-05T12:54:30.685Z,95.20
2019-03-05T12:57:01.041Z,95.60
2019-03-05T12:59:31.436Z,95.90
2019-03-05T13:02:01.877Z,95.50
2019-03-05T13:04:32.302Z,95.60
2019-03-05T13:07:02.804Z,95.80
2019-03-05T13:09:33.231Z,95.70
2019-03-05T13:12:03.818Z,96.00
2019-03-05T13:14:34.145Z,94.40
2019-03-05T13:17:06.917Z,94.60
2019-03-05T13:19:38.761Z,94.40
2019-03-05T13:22:09.599Z,93.80
2019-03-05T13:24:40.052Z,93.90
2019-03-05T13:27:12.292Z,93.70
2019-03-05T13:29:42.660Z,93.80
2019-03-05T13:32:16.798Z,93.60
2019-03-05T13:34:45.241Z,93.60
2019-03-05T13:37:15.594Z,92.70
2019-03-05T13:39:45.968Z,92.90
2019-03-05T13:42:16.436Z,93.20
2019-03-05T13:44:48.831Z,92.90
2019-03-05T13:47:19.303Z,92.70
2019-03-05T13:50:11.280Z,93.10
2019-03-05T13:53:43.947Z,92.80
2019-03-05T13:56:54.591Z,92.30
2019-03-05T13:59:43.953Z,91.80
2019-03-05T14:02:22.899Z,91.80
2019-03-05T14:04:59.369Z,91.50
2019-03-05T14:08:09.664Z,91.10
2019-03-05T14:10:42.463Z,91.70
2019-03-05T14:13:12.811Z,91.90
2019-03-05T14:15:44.102Z,92.20
2019-03-05T14:18:14.441Z,92.40
2019-03-05T14:20:44.785Z,92.50
2019-03-05T14:23:15.320Z,92.50
2019-03-05T14:25:45.602Z,93.10
2019-03-05T14:28:16.046Z,93.60
2019-03-05T14:30:46.448Z,93.80
2019-03-05T14:33:16.967Z,93.20
2019-03-05T14:35:47.693Z,92.70
2019-03-05T14:38:18.406Z,92.70
2019-03-05T14:40:49.298Z,92.60
2019-03-05T14:43:19.890Z,92.30
2019-03-05T14:45:50.403Z,92.10
2019-03-05T14:48:20.827Z,92.00
2019-03-05T14:50:51.217Z,92.10
2019-03-05T14:53:21.571Z,91.60
2019-03-05T14:55:54.491Z,91.30
2019-03-05T14:58:23.849Z,91.10
2019-03-05T15:00:55.266Z,90.30
2019-03-05T15:03:25.563Z,90.40
2019-03-05T15:05:56.785Z,89.00
2019-03-05T15:08:27.230Z,89.20
2019-03-05T15:10:57.577Z,87.70
2019-03-05T15:13:31.051Z,88.30
2019-03-05T15:16:01.406Z,88.50
2019-03-05T15:18:31.765Z,89.70
2019-03-05T15:21:02.277Z,89.40
2019-03-05T15:23:32.620Z,88.30
2019-03-05T15:26:06.158Z,89.00
2019-03-05T15:28:37.872Z,89.10
2019-03-05T15:31:08.256Z,88.70
2019-03-05T15:33:41.960Z,89.90
2019-03-05T15:36:23.244Z,90.10
2019-03-05T15:38:44.560Z,90.50
2019-03-05T15:41:14.820Z,90.60
2019-03-05T15:43:45.213Z,90.80
2019-03-05T15:46:15.582Z,90.70
2019-03-05T15:48:46.040Z,90.90
2019-03-05T15:51:16.354Z,90.50
2019-03-05T15:56:17.853Z,90.00
2019-03-05T15:58:48.228Z,90.10
2019-03-05T16:01:22.360Z,90.40
2019-03-05T16:03:50.722Z,90.30
2019-03-05T16:06:21.077Z,90.10
2019-03-05T16:08:51.517Z,89.60
2019-03-05T16:11:21.855Z,90.10
2019-03-05T16:13:56.024Z,90.50
2019-03-05T16:16:24.168Z,90.80
2019-03-05T16:18:54.537Z,91.00
2019-03-05T16:21:24.833Z,91.20
2019-03-05T16:23:55.208Z,91.40
2019-03-05T16:26:25.684Z,91.60
2019-03-05T16:28:56.006Z,92.10
2019-03-05T16:31:45.437Z,92.10
2019-03-05T16:34:32.090Z,93.00
2019-03-05T16:37:21.244Z,93.00
2019-03-05T16:39:58.047Z,93.60
2019-03-05T16:42:43.514Z,93.80
2019-03-05T16:45:31.608Z,94.40
2019-03-05T16:48:30.659Z,94.50
2019-03-05T16:51:20.193Z,93.90
2019-03-05T16:54:08.454Z,94.00
2019-03-05T16:57:04.022Z,93.70
2019-03-05T16:59:53.674Z,93.80
2019-03-05T17:02:42.934Z,94.00
2019-03-05T17:05:46.105Z,94.10
2019-03-05T17:08:29.246Z,94.10
2019-03-05T17:11:30.396Z,94.00
2019-03-05T17:14:01.977Z,93.90
2019-03-05T17:16:32.349Z,93.90
2019-03-05T17:19:02.857Z,93.60
2019-03-05T17:21:33.209Z,93.60
2019-03-05T17:24:03.780Z,93.60
2019-03-05T17:26:34.179Z,93.60
2019-03-05T17:29:05.079Z,93.50
2019-03-05T17:31:36.482Z,93.40
2019-03-05T17:34:07.189Z,93.30
2019-03-05T17:36:38.181Z,93.30
2019-03-05T17:39:15.453Z,93.10
2019-03-05T17:41:45.947Z,93.10
2019-03-05T17:46:54.533Z,93.10
2019-03-05T17:49:25.128Z,93.00
2019-03-05T17:51:55.546Z,93.10
2019-03-05T17:54:28.979Z,93.20
2019-03-05T17:56:59.298Z,93.30
2019-03-05T17:59:29.610Z,93.40
2019-03-05T18:01:59.997Z,93.60
2019-03-05T18:04:30.335Z,93.60
2019-03-05T18:07:00.848Z,93.70
2019-03-05T18:09:31.169Z,93.80
2019-03-05T18:12:01.494Z,93.90
2019-03-05T18:14:31.737Z,94.00
2019-03-05T18:17:02.122Z,94.00
2019-03-05T18:19:32.414Z,94.10
2019-03-05T18:22:02.804Z,94.10
2019-03-05T18:24:33.174Z,94.10
2019-03-05T18:27:03.516Z,94.10
2019-03-05T18:29:34.509Z,94.30
2019-03-05T18:32:05.469Z,94.30
2019-03-05T18:34:36.147Z,94.30
2019-03-05T18:37:06.431Z,94.40
2019-03-05T18:39:37.184Z,94.40
2019-03-05T18:42:07.127Z,94.40
2019-03-05T18:44:37.487Z,94.40
2019-03-05T18:47:07.938Z,94.40
2019-03-05T18:49:38.547Z,94.60
2019-03-05T18:52:09.075Z,94.60
2019-03-05T18:54:39.830Z,94.60
2019-03-05T18:57:10.134Z,94.70
2019-03-05T18:59:40.624Z,94.60
2019-03-05T19:02:10.933Z,94.70
2019-03-05T19:04:41.304Z,94.70
2019-03-05T19:07:11.712Z,94.70
2019-03-05T19:09:42.137Z,94.70
2019-03-05T19:12:12.612Z,94.60
2019-03-05T19:14:43.206Z,95.00
2019-03-05T19:17:13.524Z,94.60
2019-03-05T19:19:43.825Z,94.70
2019-03-05T19:22:14.796Z,94.70
2019-03-05T19:24:45.214Z,94.80
2019-03-05T19:27:25.699Z,95.20
2019-03-05T19:29:50.635Z,95.40
2019-03-05T19:32:24.104Z,95.50
2019-03-05T19:34:55.730Z,95.60
2019-03-05T19:37:27.706Z,95.70
2019-03-05T19:39:59.466Z,95.90
2019-03-05T19:42:33.261Z,96.00
2019-03-05T19:45:05.944Z,96.10
2019-03-05T19:47:40.429Z,96.30
2019-03-05T19:50:13.586Z,96.40
2019-03-05T19:52:45.053Z,96.60
2019-03-05T19:55:21.120Z,96.60
2019-03-05T20:00:58.537Z,96.60
2019-03-05T20:03:30.392Z,96.80
2019-03-05T20:06:02.098Z,96.80
2019-03-05T20:08:39.853Z,96.90
2019-03-05T20:11:06.886Z,96.90
2019-03-05T20:13:38.401Z,97.00
2019-03-05T20:16:10.049Z,97.00
2019-03-05T20:18:41.628Z,97.10
2019-03-05T20:21:15.725Z,97.00
2019-03-05T20:23:47.076Z,97.00
2019-03-05T20:26:18.228Z,97.10
2019-03-05T20:29:35.237Z,97.30
2019-03-05T20:32:05.532Z,97.30
2019-03-05T20:34:37.022Z,97.30
2019-03-05T20:37:08.522Z,97.40
2019-03-05T20:39:40.155Z,97.40
2019-03-05T20:42:11.355Z,97.40
2019-03-05T20:44:44.971Z,97.40
2019-03-05T20:47:16.406Z,97.50
2019-03-05T20:49:48.148Z,97.50
2019-03-05T20:52:19.664Z,97.60
2019-03-05T20:54:51.739Z,97.60
2019-03-05T20:57:23.727Z,97.60
2019-03-05T20:59:55.777Z,97.60
2019-03-05T21:02:26.789Z,97.60
2019-03-05T21:04:57.970Z,97.80
2019-03-05T21:07:29.499Z,97.90
2019-03-05T21:10:00.933Z,97.80
2019-03-05T21:12:31.299Z,97.70
2019-03-05T21:15:02.744Z,97.80
2019-03-05T21:17:33.765Z,97.80
2019-03-05T21:20:06.044Z,97.70
2019-03-05T21:22:37.638Z,98.20
2019-03-05T21:25:10.316Z,97.80
2019-03-05T21:27:41.602Z,97.80
2019-03-05T21:30:15.593Z,97.80
2019-03-05T21:32:47.729Z,97.80
2019-03-05T21:35:19.583Z,98.00
2019-03-05T21:37:51.720Z,98.00
2019-03-05T21:40:24.015Z,98.00
2019-03-05T21:42:55.856Z,98.00
2019-03-05T21:45:32.701Z,98.10
2019-03-05T21:48:05.320Z,97.90
2019-03-05T21:50:36.909Z,97.90
2019-03-05T21:53:08.177Z,97.90
2019-03-05T21:55:40.201Z,97.80
2019-03-05T21:58:12.225Z,97.70
2019-03-05T22:00:43.749Z,97.80
2019-03-05T22:03:15.210Z,97.70
2019-03-05T22:05:45.510Z,97.60
2019-03-05T22:08:16.785Z,97.60
2019-03-05T22:10:48.369Z,97.60
2019-03-05T22:13:20.153Z,97.60
2019-03-05T22:15:51.575Z,97.60
2019-03-05T22:20:20.563Z,97.60
2019-03-05T22:22:50.965Z,97.50
2019-03-05T22:25:21.393Z,97.60
2019-03-05T22:27:51.865Z,97.60
2019-03-05T22:30:24.178Z,97.60
2019-03-05T22:32:54.484Z,97.50
2019-03-05T22:35:25.167Z,97.50
2019-03-05T22:37:55.528Z,97.50
2019-03-05T22:40:26.021Z,97.60
2019-03-05T22:42:55.968Z,97.60
2019-03-05T22:45:26.278Z,97.70
2019-03-05T22:47:56.557Z,97.80
2019-03-05T22:50:26.916Z,97.70
2019-03-05T22:52:57.245Z,97.70
2019-03-05T22:55:27.529Z,97.80
2019-03-05T22:57:58.161Z,98.10
2019-03-05T23:00:58.378Z,98.10
2019-03-05T23:03:29.063Z,98.10
2019-03-05T23:06:00.177Z,98.10
2019-03-05T23:08:30.578Z,98.10
2019-03-05T23:11:00.889Z,98.20
2019-03-05T23:13:31.641Z,98.20
2019-03-05T23:16:02.131Z,98.20
2019-03-05T23:18:32.433Z,98.10
2019-03-05T23:21:02.830Z,98.10
2019-03-05T23:23:33.190Z,98.20
2019-03-05T23:26:03.753Z,98.30
2019-03-05T23:28:34.076Z,98.40
2019-03-05T23:31:04.673Z,98.30
2019-03-05T23:33:34.944Z,98.30
2019-03-05T23:36:05.477Z,98.40
2019-03-05T23:38:35.997Z,98.40
2019-03-05T23:41:06.372Z,98.40
2019-03-05T23:43:36.689Z,98.40
2019-03-05T23:46:06.618Z,98.80
2019-03-05T23:48:36.984Z,98.50
2019-03-05T23:51:07.270Z,98.50
2019-03-05T23:53:37.617Z,98.50
2019-03-05T23:56:07.984Z,98.60
2019-03-05T23:58:38.581Z,98.60
